Pleasant Grove, UT (84062)

5:38 AM MST on March 01, 2015 (GMT -0700)
Cedar Hills - South | Change Station
CLOSE
Current Station
Personal Weather Station
Location: Cedar Hills, UT
Elevation: 4969 ft
Nearby Weather Stations

Elev 4969 ft 40.40 °N, 111.74 °W | Updated 19 seconds ago

Overcast
Overcast
31.2 °F
Feels Like 31 °F
N
0.0
Wind Variable Wind from NNW
Gusts 0.0 mph

Today
High -- | Low -- °F
--% Chance of Precip.
Yesterday
High -- | Low -- °F
Precip. -- in
7:00 AM 6:18 PM
Waxing Gibbous, 85% visible
Pressure 30.02 in
Visibility 2.5 miles
Clouds Few 2800 ft
Scattered Clouds 4900 ft
Mostly Cloudy 6000 ft
Windchill 31 °F
Dew Point 29 °F
Humidity 93%
Rainfall 0.00 in
Snow Depth Not available.
UV 0 out of 12
Pollen 2.90 out of 12
Air Quality Not available.
Flu Activity Not available.
METAR KPVU 011215Z AUTO 00000KT 2 1/2SM FEW028 SCT049 BKN060 01/M01 A3002 RMK AO1

More Conditions Fewer Conditions

Pressure 30.02 in
Visibility 2.5 miles
Clouds Few 2800 ft
Scattered Clouds 4900 ft
Mostly Cloudy 6000 ft
Windchill 31 °F
Dew Point 29 °F
Humidity 93%
Rainfall 0.00 in
Snow Depth Not available.
UV 0 out of 12
Pollen 2.90 out of 12
Air Quality Not available.
Flu Activity Not available.
METAR KPVU 011215Z AUTO 00000KT 2 1/2SM FEW028 SCT049 BKN060 01/M01 A3002 RMK AO1

More Conditions Fewer Conditions

10-Day Weather Forecast

Almanac

Astronomy

Mar. 01, 2015 Rise Set
Actual Time
Civil Twilight
Nautical Twilight
Astronomical Twilight
Moon
Length of Visible Light
Length of Day
Tomorrow will be .
, % of the Moon is Illuminated

Today's Extremes

State Highs State Lows

Community

WunderPhotos

Upload Photos

1,801,368 photos uploaded!

WunderBlogs® & News

Nearby

Air Quality

  Air Quality AQ Index Pollutant
Not available.

Snow Depth

Station Depth Elevation

Earthquake Activity

City Distance Mag. Time & Date
Minimum magnitude displayed is 2.5.

Coastal Water Temperatures

Place Temperature

Nearby Weather Stations